Svitzer Lisboa — CSXW7 — position and weather

sailwx.info

Track history (hours):
 
Tides and Currents Weather Stations Pressure Air Temp Water Temp Dewpoint Dewpoint Depression Visibility Wind Speed Wind Dir Waves Ship Positions

Svitzer Lisboa

Last reported at 2018-Jan-22 12:30 UTC. Time now 2018-Jan-22 12:39 UTC.
Position N 38°30' W 008°50'.

Length 28 m; draft 4 m.

Type: Towing. MMSI: 263623000.

Date/timePositionNaut miles runAvg speedWind from/ knotsBaromVisibWave heightAir tempDewpointWater temp
2018-Jan-22 12:30N 38°30' W 008°50'0 0.0
2018-Jan-22 12:00N 38°30' W 008°50'0 0.0
2018-Jan-22 11:30N 38°30' W 008°50'0 0.0
2018-Jan-22 10:58N 38°30' W 008°50'0 0.0
2018-Jan-22 10:30N 38°30' W 008°50'0 0.0
2018-Jan-22 09:56N 38°30' W 008°50'0 0.0
2018-Jan-22 09:28N 38°30' W 008°50'0 0.0
2018-Jan-22 09:00N 38°30' W 008°50'0 0.0
2018-Jan-22 08:30N 38°30' W 008°50'0 0.0
2018-Jan-22 07:59N 38°30' W 008°50'0 0.0
2018-Jan-22 07:30N 38°30' W 008°50'0 0.0
2018-Jan-22 06:58N 38°30' W 008°50'0 0.0
2018-Jan-22 06:30N 38°30' W 008°50'0 0.0
2018-Jan-22 06:00N 38°30' W 008°50'0 0.0
2018-Jan-22 05:29N 38°30' W 008°50'0 0.0
2018-Jan-22 05:00N 38°30' W 008°50'0 0.0
2018-Jan-22 04:30N 38°30' W 008°50'0 0.0
2018-Jan-22 04:00N 38°30' W 008°50'0 0.0
2018-Jan-22 03:30N 38°30' W 008°50'0 0.0
2018-Jan-22 03:00N 38°30' W 008°50'0 0.0
2018-Jan-22 02:30N 38°30' W 008°50'0 0.0
2018-Jan-22 01:56N 38°30' W 008°50'0 0.0
2018-Jan-22 01:30N 38°30' W 008°50'0 0.0
2018-Jan-22 01:00N 38°30' W 008°50'0 0.0
2018-Jan-22 00:29N 38°30' W 008°50'0 0.0
2018-Jan-22 00:00N 38°30' W 008°50'0 0.0
2018-Jan-21 23:30N 38°30' W 008°50'0 0.0
2018-Jan-21 22:56N 38°30' W 008°50'0 0.0
2018-Jan-21 22:27N 38°30' W 008°50'0 0.0
2018-Jan-21 21:56N 38°30' W 008°50'0 0.0
2018-Jan-21 21:28N 38°30' W 008°50'0 0.0
2018-Jan-21 20:59N 38°30' W 008°50'0 0.0
2018-Jan-21 20:28N 38°30' W 008°50'0 0.0
2018-Jan-21 20:00N 38°30' W 008°50'0 0.0
2018-Jan-21 19:30N 38°30' W 008°50'0 0.0
2018-Jan-21 18:59N 38°30' W 008°50'0 0.0
2018-Jan-21 18:30N 38°30' W 008°50'0 0.0
2018-Jan-21 18:00N 38°30' W 008°50'0 0.0
2018-Jan-21 17:30N 38°30' W 008°50'0 0.0
2018-Jan-21 16:59N 38°30' W 008°50'0 0.0
2018-Jan-21 16:30N 38°30' W 008°50'0 0.0
2018-Jan-21 16:00N 38°30' W 008°50'0 0.0
2018-Jan-21 15:26N 38°30' W 008°50'0 0.0
2018-Jan-21 14:58N 38°30' W 008°50'0 0.0
2018-Jan-21 14:30N 38°30' W 008°50'0 0.0
2018-Jan-21 13:59N 38°30' W 008°50'0 0.0
2018-Jan-21 13:26N 38°30' W 008°50'0 0.0
2018-Jan-21 12:58N 38°30' W 008°50'0 0.0
2018-Jan-21 12:30N 38°30' W 008°50'0 0.0
2018-Jan-21 11:59N 38°30' W 008°50'0 0.0
2018-Jan-21 11:30N 38°30' W 008°50'0 0.0
2018-Jan-21 10:58N 38°30' W 008°50'0 0.0
2018-Jan-21 10:30N 38°30' W 008°50'0 0.0
2018-Jan-21 10:00N 38°30' W 008°50'0 0.0
2018-Jan-21 09:30N 38°30' W 008°50'0 0.0
2018-Jan-21 08:56N 38°30' W 008°50'0 0.0
2018-Jan-21 08:30N 38°30' W 008°50'0 0.0
2018-Jan-21 07:58N 38°30' W 008°50'0 0.0
2018-Jan-21 07:30N 38°30' W 008°50'0 0.0
2018-Jan-21 07:00N 38°30' W 008°50'2 1.2
2018-Jan-21 05:13N 38°31' W 008°53'1 4.4
2018-Jan-21 04:59N 38°30' W 008°51'1 2.2
2018-Jan-21 04:29N 38°30' W 008°50'0 0.0
2018-Jan-21 03:58N 38°30' W 008°50'0 0.0
2018-Jan-21 03:12N 38°30' W 008°50'0 0.0
2018-Jan-21 03:00N 38°30' W 008°50'0 0.0
2018-Jan-21 02:30N 38°30' W 008°50'0 0.0
2018-Jan-21 01:57N 38°30' W 008°50'0 0.0
2018-Jan-21 01:10N 38°30' W 008°50'0 0.0
2018-Jan-21 00:59N 38°30' W 008°50'2 2.2
2018-Jan-21 00:12N 38°31' W 008°52'1 4.1
2018-Jan-20 23:59N 38°31' W 008°53'1 0.7
2018-Jan-20 23:14N 38°31' W 008°54'1 3.8
2018-Jan-20 22:55N 38°31' W 008°52'2 4.2
2018-Jan-20 22:30N 38°30' W 008°50'0 0.1
2018-Jan-20 21:58N 38°30' W 008°50'0 0.0
2018-Jan-20 21:30N 38°30' W 008°50'0 0.0
2018-Jan-20 20:28N 38°30' W 008°50'0 0.0
2018-Jan-20 19:53N 38°30' W 008°50'0 0.0
2018-Jan-20 19:29N 38°30' W 008°50'0 0.0
2018-Jan-20 18:59N 38°30' W 008°50'0 0.0
2018-Jan-20 18:29N 38°30' W 008°50'0 0.0
2018-Jan-20 18:00N 38°30' W 008°50'0 0.0
2018-Jan-20 17:23N 38°30' W 008°50'0 0.0
2018-Jan-20 16:58N 38°30' W 008°50'0 0.0
2018-Jan-20 16:14N 38°30' W 008°50'0 0.0
2018-Jan-20 16:00N 38°30' W 008°50'0 0.0
2018-Jan-20 15:28N 38°30' W 008°50'0 0.0
2018-Jan-20 14:59N 38°30' W 008°50'0 0.0
2018-Jan-20 14:29N 38°30' W 008°50'0 0.0
2018-Jan-20 13:59N 38°30' W 008°50'0 0.0
2018-Jan-20 13:30N 38°30' W 008°50'0 0.0
2018-Jan-20 12:58N 38°30' W 008°50'0 0.0
2018-Jan-20 12:30N 38°30' W 008°50'0 0.0
2018-Jan-20 12:00N 38°30' W 008°50'0 0.0
2018-Jan-20 11:28N 38°30' W 008°50'0 0.0
2018-Jan-20 10:55N 38°30' W 008°50'0 0.0
2018-Jan-20 10:30N 38°30' W 008°50'0 0.0
2018-Jan-20 09:59N 38°30' W 008°50'0 0.0
2018-Jan-20 09:30N 38°30' W 008°50'0 0.0
2018-Jan-20 08:59N 38°30' W 008°50'0 0.0
2018-Jan-20 08:30N 38°30' W 008°50'0 0.0
2018-Jan-20 07:59N 38°30' W 008°50'0 0.0
2018-Jan-20 07:28N 38°30' W 008°50'0 0.0
2018-Jan-20 06:59N 38°30' W 008°50'0 0.0
2018-Jan-20 06:29N 38°30' W 008°50'0 0.0
2018-Jan-20 05:57N 38°30' W 008°50'0 0.0
2018-Jan-20 05:29N 38°30' W 008°50'0 0.0
2018-Jan-20 04:55N 38°30' W 008°50'0 0.0
2018-Jan-20 04:30N 38°30' W 008°50'0 0.0
2018-Jan-20 03:58N 38°30' W 008°50'0 0.0
2018-Jan-20 03:29N 38°30' W 008°50'0 0.0
2018-Jan-20 03:00N 38°30' W 008°50'0 0.0
2018-Jan-20 02:24N 38°30' W 008°50'0 0.0
2018-Jan-20 01:59N 38°30' W 008°50'0 0.0
2018-Jan-20 01:27N 38°30' W 008°50'0 0.0
2018-Jan-20 00:58N 38°30' W 008°50'0 0.0
2018-Jan-20 00:28N 38°30' W 008°50'0 0.0
2018-Jan-20 00:00N 38°30' W 008°50'0 0.0
2018-Jan-19 23:30N 38°30' W 008°50'0 0.0
2018-Jan-19 23:00N 38°30' W 008°50'0 0.0
2018-Jan-19 22:30N 38°30' W 008°50'0 0.0
2018-Jan-19 21:56N 38°30' W 008°50'0 0.0
2018-Jan-19 21:25N 38°30' W 008°50'0 0.0
2018-Jan-19 21:00N 38°30' W 008°50'0 0.0
2018-Jan-19 20:30N 38°30' W 008°50'0 0.2
2018-Jan-19 19:52N 38°30' W 008°50'0 0.0
2018-Jan-19 19:29N 38°30' W 008°50'0 0.0
2018-Jan-19 19:00N 38°30' W 008°50'0 0.0
2018-Jan-19 18:17N 38°30' W 008°50'0 0.0
2018-Jan-19 17:59N 38°30' W 008°50'0 0.0
2018-Jan-19 17:23N 38°30' W 008°50'0 0.0
2018-Jan-19 16:54N 38°30' W 008°50'0 0.2
2018-Jan-19 16:21N 38°30' W 008°50'0 0.0
2018-Jan-19 15:49N 38°30' W 008°50'0 0.0
2018-Jan-19 15:25N 38°30' W 008°50'0 0.0
2018-Jan-19 14:58N 38°30' W 008°50'0 0.0
2018-Jan-19 14:27N 38°30' W 008°50'0 0.0
2018-Jan-19 13:59N 38°30' W 008°50'0 0.0
2018-Jan-19 13:30N 38°30' W 008°50'0 0.0
2018-Jan-19 12:47N 38°30' W 008°50'0 0.0
2018-Jan-19 12:27N 38°30' W 008°50'0 0.0
2018-Jan-19 11:56N 38°30' W 008°50'0 0.0
2018-Jan-19 11:22N 38°30' W 008°50'0 0.0
2018-Jan-19 10:59N 38°30' W 008°50'0 0.0
2018-Jan-19 10:26N 38°30' W 008°50'0 0.0
2018-Jan-19 09:58N 38°30' W 008°50'0 0.0
2018-Jan-19 09:28N 38°30' W 008°50'0 0.0
2018-Jan-19 08:58N 38°30' W 008°50'0 0.0
2018-Jan-19 08:27N 38°30' W 008°50'0 0.0
2018-Jan-19 07:59N 38°30' W 008°50'0 0.0
2018-Jan-19 07:22N 38°30' W 008°50'0 0.0
2018-Jan-19 06:59N 38°30' W 008°50'0 0.0
2018-Jan-19 06:30N 38°30' W 008°50'0 0.0
2018-Jan-19 05:54N 38°30' W 008°50'0 0.0
2018-Jan-19 05:29N 38°30' W 008°50'0 0.0
2018-Jan-19 05:00N 38°30' W 008°50'0 0.0
2018-Jan-19 04:28N 38°30' W 008°50'0 0.0
2018-Jan-19 03:48N 38°30' W 008°50'0 0.0
2018-Jan-19 03:16N 38°30' W 008°50'0 0.0
2018-Jan-19 02:58N 38°30' W 008°50'0 0.0
2018-Jan-19 02:29N 38°30' W 008°50'0 0.0
2018-Jan-19 01:59N 38°30' W 008°50'0 0.0
2018-Jan-19 01:29N 38°30' W 008°50'0 0.0
2018-Jan-19 00:52N 38°30' W 008°50'0 0.0
2018-Jan-19 00:11N 38°30' W 008°50'0 0.0
2018-Jan-18 23:53N 38°30' W 008°50'0 0.0
2018-Jan-18 23:24N 38°30' W 008°50'0 0.0
2018-Jan-18 22:59N 38°30' W 008°50'0 0.0
2018-Jan-18 22:28N 38°30' W 008°50'0 0.0
2018-Jan-18 21:54N 38°30' W 008°50'0 0.0
2018-Jan-18 21:29N 38°30' W 008°50'0 0.0
2018-Jan-18 20:54N 38°30' W 008°50'0 0.0
2018-Jan-18 20:27N 38°30' W 008°50'0 0.0
2018-Jan-18 19:59N 38°30' W 008°50'0 0.0
2018-Jan-18 19:28N 38°30' W 008°50'0 0.0
2018-Jan-18 19:00N 38°30' W 008°50'0 0.0
2018-Jan-18 18:22N 38°30' W 008°50'0 0.0
2018-Jan-18 17:52N 38°30' W 008°50'0 0.0
2018-Jan-18 17:28N 38°30' W 008°50'0 0.0
2018-Jan-18 17:00N 38°30' W 008°50'0 0.0
2018-Jan-18 16:29N 38°30' W 008°50'0 0.0
2018-Jan-18 15:56N 38°30' W 008°50'0 0.0
2018-Jan-18 15:26N 38°30' W 008°50'0 0.0
2018-Jan-18 14:57N 38°30' W 008°50'0 0.0
2018-Jan-18 14:23N 38°30' W 008°50'0 0.0
2018-Jan-18 13:59N 38°30' W 008°50'0 0.0
2018-Jan-18 13:29N 38°30' W 008°50'0 0.0
2018-Jan-18 12:59N 38°30' W 008°50'0 0.0
2018-Jan-18 12:28N 38°30' W 008°50'0 0.0
2018-Jan-18 11:59N 38°30' W 008°50'0 0.0
2018-Jan-18 11:30N 38°30' W 008°50'0 0.0
2018-Jan-18 11:00N 38°30' W 008°50'0 0.0
2018-Jan-18 10:26N 38°30' W 008°50'0 0.0
2018-Jan-18 09:48N 38°30' W 008°50'0 0.0
2018-Jan-18 09:21N 38°30' W 008°50'0 0.0
2018-Jan-18 09:00N 38°30' W 008°50'0 0.0
2018-Jan-18 08:30N 38°30' W 008°50'0 0.0
2018-Jan-18 07:59N 38°30' W 008°50'0 0.0
2018-Jan-18 07:30N 38°30' W 008°50'0 0.0
2018-Jan-18 07:00N 38°30' W 008°50'0 0.0
2018-Jan-18 06:30N 38°30' W 008°50'0 0.0
2018-Jan-18 05:57N 38°30' W 008°50'0 0.0
2018-Jan-18 05:29N 38°30' W 008°50'0 0.0
2018-Jan-18 04:57N 38°30' W 008°50'0 0.0
2018-Jan-18 04:30N 38°30' W 008°50'0 0.0
2018-Jan-18 04:00N 38°30' W 008°50'0 0.0
2018-Jan-18 03:28N 38°30' W 008°50'0 0.0
2018-Jan-18 02:59N 38°30' W 008°50'0 0.0
2018-Jan-18 02:22N 38°30' W 008°50'0 0.0
2018-Jan-18 01:58N 38°30' W 008°50'0 0.0
2018-Jan-18 01:29N 38°30' W 008°50'0 0.0
2018-Jan-18 01:00N 38°30' W 008°50'0 0.0
2018-Jan-17 23:59N 38°30' W 008°50'0 0.0
2018-Jan-17 23:53N 38°30' W 008°50'  
2018-Jan-12 14:58N 38°30' W 008°50'0 0.0
2018-Jan-12 14:29N 38°30' W 008°50'0 0.0
2018-Jan-12 13:58N 38°30' W 008°50'0 0.0
2018-Jan-12 13:22N 38°30' W 008°50'0 0.0
2018-Jan-12 12:55N 38°30' W 008°50'  
Track history (hours):
 
Tides and Currents Weather Stations Pressure Air Temp Water Temp Dewpoint Dewpoint Depression Visibility Wind Speed Wind Dir Waves Ship Positions

Svitzer Lisboa

Last reported at 2018-Jan-22 12:30 UTC. Time now 2018-Jan-22 12:39 UTC.
Position N 38°30' W 008°50'.

Length 28 m; draft 4 m.

Type: Towing. MMSI: 263623000.

Date/timePositionNaut miles runAvg speedWind from/ knotsBaromVisibWave heightAir tempDewpointWater temp
2018-Jan-22 12:30N 38°30' W 008°50'0 0.0
2018-Jan-22 12:00N 38°30' W 008°50'0 0.0
2018-Jan-22 11:30N 38°30' W 008°50'0 0.0
2018-Jan-22 10:58N 38°30' W 008°50'0 0.0
2018-Jan-22 10:30N 38°30' W 008°50'0 0.0
2018-Jan-22 09:56N 38°30' W 008°50'0 0.0
2018-Jan-22 09:28N 38°30' W 008°50'0 0.0
2018-Jan-22 09:00N 38°30' W 008°50'0 0.0
2018-Jan-22 08:30N 38°30' W 008°50'0 0.0
2018-Jan-22 07:59N 38°30' W 008°50'0 0.0
2018-Jan-22 07:30N 38°30' W 008°50'0 0.0
2018-Jan-22 06:58N 38°30' W 008°50'0 0.0
2018-Jan-22 06:30N 38°30' W 008°50'0 0.0
2018-Jan-22 06:00N 38°30' W 008°50'0 0.0
2018-Jan-22 05:29N 38°30' W 008°50'0 0.0
2018-Jan-22 05:00N 38°30' W 008°50'0 0.0
2018-Jan-22 04:30N 38°30' W 008°50'0 0.0
2018-Jan-22 04:00N 38°30' W 008°50'0 0.0
2018-Jan-22 03:30N 38°30' W 008°50'0 0.0
2018-Jan-22 03:00N 38°30' W 008°50'0 0.0
2018-Jan-22 02:30N 38°30' W 008°50'0 0.0
2018-Jan-22 01:56N 38°30' W 008°50'0 0.0
2018-Jan-22 01:30N 38°30' W 008°50'0 0.0
2018-Jan-22 01:00N 38°30' W 008°50'0 0.0
2018-Jan-22 00:29N 38°30' W 008°50'0 0.0
2018-Jan-22 00:00N 38°30' W 008°50'0 0.0
2018-Jan-21 23:30N 38°30' W 008°50'0 0.0
2018-Jan-21 22:56N 38°30' W 008°50'0 0.0
2018-Jan-21 22:27N 38°30' W 008°50'0 0.0
2018-Jan-21 21:56N 38°30' W 008°50'0 0.0
2018-Jan-21 21:28N 38°30' W 008°50'0 0.0
2018-Jan-21 20:59N 38°30' W 008°50'0 0.0
2018-Jan-21 20:28N 38°30' W 008°50'0 0.0
2018-Jan-21 20:00N 38°30' W 008°50'0 0.0
2018-Jan-21 19:30N 38°30' W 008°50'0 0.0
2018-Jan-21 18:59N 38°30' W 008°50'0 0.0
2018-Jan-21 18:30N 38°30' W 008°50'0 0.0
2018-Jan-21 18:00N 38°30' W 008°50'0 0.0
2018-Jan-21 17:30N 38°30' W 008°50'0 0.0
2018-Jan-21 16:59N 38°30' W 008°50'0 0.0
2018-Jan-21 16:30N 38°30' W 008°50'0 0.0
2018-Jan-21 16:00N 38°30' W 008°50'0 0.0
2018-Jan-21 15:26N 38°30' W 008°50'0 0.0
2018-Jan-21 14:58N 38°30' W 008°50'0 0.0
2018-Jan-21 14:30N 38°30' W 008°50'0 0.0
2018-Jan-21 13:59N 38°30' W 008°50'0 0.0
2018-Jan-21 13:26N 38°30' W 008°50'0 0.0
2018-Jan-21 12:58N 38°30' W 008°50'0 0.0
2018-Jan-21 12:30N 38°30' W 008°50'0 0.0
2018-Jan-21 11:59N 38°30' W 008°50'0 0.0
2018-Jan-21 11:30N 38°30' W 008°50'0 0.0
2018-Jan-21 10:58N 38°30' W 008°50'0 0.0
2018-Jan-21 10:30N 38°30' W 008°50'0 0.0
2018-Jan-21 10:00N 38°30' W 008°50'0 0.0
2018-Jan-21 09:30N 38°30' W 008°50'0 0.0
2018-Jan-21 08:56N 38°30' W 008°50'0 0.0
2018-Jan-21 08:30N 38°30' W 008°50'0 0.0
2018-Jan-21 07:58N 38°30' W 008°50'0 0.0
2018-Jan-21 07:30N 38°30' W 008°50'0 0.0
2018-Jan-21 07:00N 38°30' W 008°50'2 1.2
2018-Jan-21 05:13N 38°31' W 008°53'1 4.4
2018-Jan-21 04:59N 38°30' W 008°51'1 2.2
2018-Jan-21 04:29N 38°30' W 008°50'0 0.0
2018-Jan-21 03:58N 38°30' W 008°50'0 0.0
2018-Jan-21 03:12N 38°30' W 008°50'0 0.0
2018-Jan-21 03:00N 38°30' W 008°50'0 0.0
2018-Jan-21 02:30N 38°30' W 008°50'0 0.0
2018-Jan-21 01:57N 38°30' W 008°50'0 0.0
2018-Jan-21 01:10N 38°30' W 008°50'0 0.0
2018-Jan-21 00:59N 38°30' W 008°50'2 2.2
2018-Jan-21 00:12N 38°31' W 008°52'1 4.1
2018-Jan-20 23:59N 38°31' W 008°53'1 0.7
2018-Jan-20 23:14N 38°31' W 008°54'1 3.8
2018-Jan-20 22:55N 38°31' W 008°52'2 4.2
2018-Jan-20 22:30N 38°30' W 008°50'0 0.1
2018-Jan-20 21:58N 38°30' W 008°50'0 0.0
2018-Jan-20 21:30N 38°30' W 008°50'0 0.0
2018-Jan-20 20:28N 38°30' W 008°50'0 0.0
2018-Jan-20 19:53N 38°30' W 008°50'0 0.0
2018-Jan-20 19:29N 38°30' W 008°50'0 0.0
2018-Jan-20 18:59N 38°30' W 008°50'0 0.0
2018-Jan-20 18:29N 38°30' W 008°50'0 0.0
2018-Jan-20 18:00N 38°30' W 008°50'0 0.0
2018-Jan-20 17:23N 38°30' W 008°50'0 0.0
2018-Jan-20 16:58N 38°30' W 008°50'0 0.0
2018-Jan-20 16:14N 38°30' W 008°50'0 0.0
2018-Jan-20 16:00N 38°30' W 008°50'0 0.0
2018-Jan-20 15:28N 38°30' W 008°50'0 0.0
2018-Jan-20 14:59N 38°30' W 008°50'0 0.0
2018-Jan-20 14:29N 38°30' W 008°50'0 0.0
2018-Jan-20 13:59N 38°30' W 008°50'0 0.0
2018-Jan-20 13:30N 38°30' W 008°50'0 0.0
2018-Jan-20 12:58N 38°30' W 008°50'0 0.0
2018-Jan-20 12:30N 38°30' W 008°50'0 0.0
2018-Jan-20 12:00N 38°30' W 008°50'0 0.0
2018-Jan-20 11:28N 38°30' W 008°50'0 0.0
2018-Jan-20 10:55N 38°30' W 008°50'0 0.0
2018-Jan-20 10:30N 38°30' W 008°50'0 0.0
2018-Jan-20 09:59N 38°30' W 008°50'0 0.0
2018-Jan-20 09:30N 38°30' W 008°50'0 0.0
2018-Jan-20 08:59N 38°30' W 008°50'0 0.0
2018-Jan-20 08:30N 38°30' W 008°50'0 0.0
2018-Jan-20 07:59N 38°30' W 008°50'0 0.0
2018-Jan-20 07:28N 38°30' W 008°50'0 0.0
2018-Jan-20 06:59N 38°30' W 008°50'0 0.0
2018-Jan-20 06:29N 38°30' W 008°50'0 0.0
2018-Jan-20 05:57N 38°30' W 008°50'0 0.0
2018-Jan-20 05:29N 38°30' W 008°50'0 0.0
2018-Jan-20 04:55N 38°30' W 008°50'0 0.0
2018-Jan-20 04:30N 38°30' W 008°50'0 0.0
2018-Jan-20 03:58N 38°30' W 008°50'0 0.0
2018-Jan-20 03:29N 38°30' W 008°50'0 0.0
2018-Jan-20 03:00N 38°30' W 008°50'0 0.0
2018-Jan-20 02:24N 38°30' W 008°50'0 0.0
2018-Jan-20 01:59N 38°30' W 008°50'0 0.0
2018-Jan-20 01:27N 38°30' W 008°50'0 0.0
2018-Jan-20 00:58N 38°30' W 008°50'0 0.0
2018-Jan-20 00:28N 38°30' W 008°50'0 0.0
2018-Jan-20 00:00N 38°30' W 008°50'0 0.0
2018-Jan-19 23:30N 38°30' W 008°50'0 0.0
2018-Jan-19 23:00N 38°30' W 008°50'0 0.0
2018-Jan-19 22:30N 38°30' W 008°50'0 0.0
2018-Jan-19 21:56N 38°30' W 008°50'0 0.0
2018-Jan-19 21:25N 38°30' W 008°50'0 0.0
2018-Jan-19 21:00N 38°30' W 008°50'0 0.0
2018-Jan-19 20:30N 38°30' W 008°50'0 0.2
2018-Jan-19 19:52N 38°30' W 008°50'0 0.0
2018-Jan-19 19:29N 38°30' W 008°50'0 0.0
2018-Jan-19 19:00N 38°30' W 008°50'0 0.0
2018-Jan-19 18:17N 38°30' W 008°50'0 0.0
2018-Jan-19 17:59N 38°30' W 008°50'0 0.0
2018-Jan-19 17:23N 38°30' W 008°50'0 0.0
2018-Jan-19 16:54N 38°30' W 008°50'0 0.2
2018-Jan-19 16:21N 38°30' W 008°50'0 0.0
2018-Jan-19 15:49N 38°30' W 008°50'0 0.0
2018-Jan-19 15:25N 38°30' W 008°50'0 0.0
2018-Jan-19 14:58N 38°30' W 008°50'0 0.0
2018-Jan-19 14:27N 38°30' W 008°50'0 0.0
2018-Jan-19 13:59N 38°30' W 008°50'0 0.0
2018-Jan-19 13:30N 38°30' W 008°50'0 0.0
2018-Jan-19 12:47N 38°30' W 008°50'0 0.0
2018-Jan-19 12:27N 38°30' W 008°50'0 0.0
2018-Jan-19 11:56N 38°30' W 008°50'0 0.0
2018-Jan-19 11:22N 38°30' W 008°50'0 0.0
2018-Jan-19 10:59N 38°30' W 008°50'0 0.0
2018-Jan-19 10:26N 38°30' W 008°50'0 0.0
2018-Jan-19 09:58N 38°30' W 008°50'0 0.0
2018-Jan-19 09:28N 38°30' W 008°50'0 0.0
2018-Jan-19 08:58N 38°30' W 008°50'0 0.0
2018-Jan-19 08:27N 38°30' W 008°50'0 0.0
2018-Jan-19 07:59N 38°30' W 008°50'0 0.0
2018-Jan-19 07:22N 38°30' W 008°50'0 0.0
2018-Jan-19 06:59N 38°30' W 008°50'0 0.0
2018-Jan-19 06:30N 38°30' W 008°50'0 0.0
2018-Jan-19 05:54N 38°30' W 008°50'0 0.0
2018-Jan-19 05:29N 38°30' W 008°50'0 0.0
2018-Jan-19 05:00N 38°30' W 008°50'0 0.0
2018-Jan-19 04:28N 38°30' W 008°50'0 0.0
2018-Jan-19 03:48N 38°30' W 008°50'0 0.0
2018-Jan-19 03:16N 38°30' W 008°50'0 0.0
2018-Jan-19 02:58N 38°30' W 008°50'0 0.0
2018-Jan-19 02:29N 38°30' W 008°50'0 0.0
2018-Jan-19 01:59N 38°30' W 008°50'0 0.0
2018-Jan-19 01:29N 38°30' W 008°50'0 0.0
2018-Jan-19 00:52N 38°30' W 008°50'0 0.0
2018-Jan-19 00:11N 38°30' W 008°50'0 0.0
2018-Jan-18 23:53N 38°30' W 008°50'0 0.0
2018-Jan-18 23:24N 38°30' W 008°50'0 0.0
2018-Jan-18 22:59N 38°30' W 008°50'0 0.0
2018-Jan-18 22:28N 38°30' W 008°50'0 0.0
2018-Jan-18 21:54N 38°30' W 008°50'0 0.0
2018-Jan-18 21:29N 38°30' W 008°50'0 0.0
2018-Jan-18 20:54N 38°30' W 008°50'0 0.0
2018-Jan-18 20:27N 38°30' W 008°50'0 0.0
2018-Jan-18 19:59N 38°30' W 008°50'0 0.0
2018-Jan-18 19:28N 38°30' W 008°50'0 0.0
2018-Jan-18 19:00N 38°30' W 008°50'0 0.0
2018-Jan-18 18:22N 38°30' W 008°50'0 0.0
2018-Jan-18 17:52N 38°30' W 008°50'0 0.0
2018-Jan-18 17:28N 38°30' W 008°50'0 0.0
2018-Jan-18 17:00N 38°30' W 008°50'0 0.0
2018-Jan-18 16:29N 38°30' W 008°50'0 0.0
2018-Jan-18 15:56N 38°30' W 008°50'0 0.0
2018-Jan-18 15:26N 38°30' W 008°50'0 0.0
2018-Jan-18 14:57N 38°30' W 008°50'0 0.0
2018-Jan-18 14:23N 38°30' W 008°50'0 0.0
2018-Jan-18 13:59N 38°30' W 008°50'0 0.0
2018-Jan-18 13:29N 38°30' W 008°50'0 0.0
2018-Jan-18 12:59N 38°30' W 008°50'0 0.0
2018-Jan-18 12:28N 38°30' W 008°50'0 0.0
2018-Jan-18 11:59N 38°30' W 008°50'0 0.0
2018-Jan-18 11:30N 38°30' W 008°50'0 0.0
2018-Jan-18 11:00N 38°30' W 008°50'0 0.0
2018-Jan-18 10:26N 38°30' W 008°50'0 0.0
2018-Jan-18 09:48N 38°30' W 008°50'0 0.0
2018-Jan-18 09:21N 38°30' W 008°50'0 0.0
2018-Jan-18 09:00N 38°30' W 008°50'0 0.0
2018-Jan-18 08:30N 38°30' W 008°50'0 0.0
2018-Jan-18 07:59N 38°30' W 008°50'0 0.0
2018-Jan-18 07:30N 38°30' W 008°50'0 0.0
2018-Jan-18 07:00N 38°30' W 008°50'0 0.0
2018-Jan-18 06:30N 38°30' W 008°50'0 0.0
2018-Jan-18 05:57N 38°30' W 008°50'0 0.0
2018-Jan-18 05:29N 38°30' W 008°50'0 0.0
2018-Jan-18 04:57N 38°30' W 008°50'0 0.0
2018-Jan-18 04:30N 38°30' W 008°50'0 0.0
2018-Jan-18 04:00N 38°30' W 008°50'0 0.0
2018-Jan-18 03:28N 38°30' W 008°50'0 0.0
2018-Jan-18 02:59N 38°30' W 008°50'0 0.0
2018-Jan-18 02:22N 38°30' W 008°50'0 0.0
2018-Jan-18 01:58N 38°30' W 008°50'0 0.0
2018-Jan-18 01:29N 38°30' W 008°50'0 0.0
2018-Jan-18 01:00N 38°30' W 008°50'0 0.0
2018-Jan-17 23:59N 38°30' W 008°50'0 0.0
2018-Jan-17 23:53N 38°30' W 008°50'  
2018-Jan-12 14:58N 38°30' W 008°50'0 0.0
2018-Jan-12 14:29N 38°30' W 008°50'0 0.0
2018-Jan-12 13:58N 38°30' W 008°50'0 0.0
2018-Jan-12 13:22N 38°30' W 008°50'0 0.0
2018-Jan-12 12:55N 38°30' W 008°50'  

Dump ship's entire track history